Terminal Aerodrome Forecast
Issued by NWS

Home | Current Version | Previous Version | Text Only | Print | Product List | Glossary On
Versions: 1 2 3 4 5 6 7 8 9 10 11 12 13 14 15 16 17 18 19 20 21
000
FTUS42 KTBW 281141
TAFLAL
TAF
KLAL 281141Z 2812/2912 VRB03KT P6SM SCT250
     FM281400 06005KT P6SM SCT030 SCT250
     FM281700 06006KT P6SM BKN040
     FM282000 07007KT P6SM VCTS SCT025CB BKN050
     FM290000 09006KT P6SM SCT025 BKN050
     FM290300 08004KT P6SM SCT050 SCT250=

USA.gov is the U.S. government's official web portal to all federal, state and local government web resources and services.